Time;durP1;ratioP1;P1;durP2;ratioP2;P2;SDS_P1;SDS_P2;PMS_P1;PMS_P2;Temp;Humidity;BMP_temperature;BMP_pressure;BME280_temperature;BME280_humidity;BME280_pressure;Samples;Min_cycle;Max_cycle;Signal;HPM_P1;HPM_P2
2021/01/07 00:01:34;;;;;;;40.60;21.70;;;;;;;;;;623295;225;918343;-69
2021/01/07 00:03:59;;;;;;;36.83;21.10;;;;;;;;;;622363;225;917664;-69
2021/01/07 00:06:25;;;;;;;35.60;17.60;;;;;;;;;;620874;225;918281;-69
2021/01/07 00:08:51;;;;;;;35.37;21.83;;;;;;;;;;625516;225;918547;-69
2021/01/07 00:11:17;;;;;;;37.50;20.23;;;;;;;;;;617529;224;988176;-69
2021/01/07 00:13:43;;;;;;;36.37;20.43;;;;;;;;;;619721;225;919215;-69
2021/01/07 00:16:09;;;;;;;28.73;18.80;;;;;;;;;;615018;225;918855;-69
2021/01/07 00:18:35;;;;;;;36.97;20.33;;;;;;;;;;623531;225;918482;-69
2021/01/07 00:21:00;;;;;;;37.83;21.37;;;;;;;;;;615822;225;919133;-69
2021/01/07 00:23:26;;;;;;;39.50;21.73;;;;;;;;;;602428;231;918750;-69
2021/01/07 00:25:52;;;;;;;33.87;18.63;;;;;;;;;;622373;225;918221;-68
2021/01/07 00:28:18;;;;;;;37.77;20.80;;;;;;;;;;621679;224;918494;-69
2021/01/07 00:30:44;;;;;;;35.90;21.17;;;;;;;;;;616474;225;1193134;-69
2021/01/07 00:33:10;;;;;;;38.37;21.73;;;;;;;;;;618834;225;919005;-69
2021/01/07 00:35:35;;;;;;;34.77;19.77;;;;;;;;;;619236;225;918426;-69
2021/01/07 00:38:01;;;;;;;36.97;21.73;;;;;;;;;;616753;225;923702;-69
2021/01/07 00:40:28;;;;;;;31.77;19.40;;;;;;;;;;617917;225;920461;-67
2021/01/07 00:42:54;;;;;;;38.53;21.80;;;;;;;;;;618799;224;918354;-69
2021/01/07 00:45:19;;;;;;;38.35;20.73;;;;;;;;;;619021;225;918736;-68
2021/01/07 00:47:45;;;;;;;37.67;19.97;;;;;;;;;;618055;224;919287;-69
2021/01/07 00:50:11;;;;;;;31.00;17.33;;;;;;;;;;623919;224;919452;-69
2021/01/07 00:52:37;;;;;;;37.13;21.23;;;;;;;;;;614858;225;918770;-69
2021/01/07 00:55:03;;;;;;;34.87;21.47;;;;;;;;;;619177;225;919108;-69
2021/01/07 00:57:29;;;;;;;35.10;20.07;;;;;;;;;;621768;225;918116;-69
2021/01/07 00:59:55;;;;;;;38.20;19.47;;;;;;;;;;618796;225;918678;-69
2021/01/07 01:02:21;;;;;;;41.10;20.87;;;;;;;;;;617527;225;918946;-69
2021/01/07 01:04:46;;;;;;;35.40;21.90;;;;;;;;;;620864;225;918582;-70
2021/01/07 01:07:12;;;;;;;37.43;19.80;;;;;;;;;;618109;225;918932;-69
2021/01/07 01:09:38;;;;;;;37.97;20.17;;;;;;;;;;619171;225;918919;-69
2021/01/07 01:12:05;;;;;;;43.17;20.50;;;;;;;;;;619693;225;1350054;-69
2021/01/07 01:14:31;;;;;;;38.90;21.57;;;;;;;;;;621065;225;918785;-69
2021/01/07 01:16:57;;;;;;;35.60;20.07;;;;;;;;;;620177;225;919023;-69
2021/01/07 01:19:23;;;;;;;39.80;19.20;;;;;;;;;;618500;222;917543;-69
2021/01/07 01:21:51;;;;;;;40.40;19.80;;;;;;;;;;624598;224;918640;-70
2021/01/07 01:24:17;;;;;;;30.97;17.17;;;;;;;;;;616755;225;919284;-68
2021/01/07 01:26:43;;;;;;;34.10;18.73;;;;;;;;;;620442;225;918589;-69
2021/01/07 01:29:09;;;;;;;35.97;19.62;;;;;;;;;;619900;225;918691;-69
2021/01/07 01:31:37;;;;;;;31.87;18.33;;;;;;;;;;620659;225;918639;-69
2021/01/07 01:34:03;;;;;;;37.63;19.57;;;;;;;;;;618862;225;913727;-69
2021/01/07 01:36:29;;;;;;;32.20;18.83;;;;;;;;;;621270;225;916024;-69
2021/01/07 01:38:55;;;;;;;34.97;17.20;;;;;;;;;;623389;225;916501;-69
2021/01/07 01:41:21;;;;;;;33.83;18.47;;;;;;;;;;619105;225;920232;-69
2021/01/07 01:43:46;;;;;;;29.20;17.80;;;;;;;;;;613944;225;919140;-69
2021/01/07 01:46:12;;;;;;;36.57;18.10;;;;;;;;;;618317;225;918492;-69
2021/01/07 01:48:39;;;;;;;32.37;18.60;;;;;;;;;;615274;225;919042;-69
2021/01/07 01:51:05;;;;;;;32.50;19.73;;;;;;;;;;620847;225;919092;-69
2021/01/07 01:53:31;;;;;;;34.03;19.70;;;;;;;;;;625345;225;918681;-68
2021/01/07 01:55:56;;;;;;;31.00;18.57;;;;;;;;;;621579;224;919623;-69
2021/01/07 01:58:22;;;;;;;29.60;17.70;;;;;;;;;;622107;224;919219;-69
2021/01/07 02:00:48;;;;;;;32.27;18.00;;;;;;;;;;620461;225;921734;-69
2021/01/07 02:03:14;;;;;;;37.67;19.40;;;;;;;;;;624149;225;918753;-69
2021/01/07 02:05:40;;;;;;;38.27;20.00;;;;;;;;;;619552;225;922359;-69
2021/01/07 02:08:06;;;;;;;30.43;17.20;;;;;;;;;;618700;225;919424;-69
2021/01/07 02:10:32;;;;;;;33.80;18.30;;;;;;;;;;622007;225;918660;-69
2021/01/07 02:12:57;;;;;;;39.10;18.23;;;;;;;;;;619984;225;927227;-69
2021/01/07 02:15:23;;;;;;;32.57;19.50;;;;;;;;;;617565;225;916334;-69
2021/01/07 02:17:49;;;;;;;31.37;19.20;;;;;;;;;;623684;225;918314;-69
2021/01/07 02:20:15;;;;;;;31.37;18.10;;;;;;;;;;616372;225;1122579;-68
2021/01/07 02:22:41;;;;;;;30.95;17.95;;;;;;;;;;613198;225;918658;-68
2021/01/07 02:25:07;;;;;;;31.80;18.57;;;;;;;;;;613347;225;919283;-69
2021/01/07 02:27:33;;;;;;;30.70;18.63;;;;;;;;;;625249;221;919048;-69
2021/01/07 02:29:59;;;;;;;36.37;18.23;;;;;;;;;;617567;225;919138;-69
2021/01/07 02:32:25;;;;;;;35.03;21.40;;;;;;;;;;616628;225;918838;-68
2021/01/07 02:34:50;;;;;;;32.93;20.13;;;;;;;;;;623586;225;918799;-69
2021/01/07 02:37:16;;;;;;;40.83;22.40;;;;;;;;;;616522;225;918955;-69
2021/01/07 02:39:42;;;;;;;39.03;19.27;;;;;;;;;;619423;225;918201;-69
2021/01/07 02:42:08;;;;;;;35.00;19.53;;;;;;;;;;621306;225;918998;-69
2021/01/07 02:44:34;;;;;;;32.90;19.97;;;;;;;;;;613576;225;917811;-69
2021/01/07 02:47:00;;;;;;;38.77;23.10;;;;;;;;;;613807;225;918314;-69
2021/01/07 02:49:26;;;;;;;30.80;17.23;;;;;;;;;;622500;225;919421;-68
2021/01/07 02:51:52;;;;;;;28.90;17.97;;;;;;;;;;615373;225;920325;-68
2021/01/07 02:54:17;;;;;;;29.43;18.33;;;;;;;;;;616695;225;918559;-68
2021/01/07 02:56:43;;;;;;;31.43;18.20;;;;;;;;;;617193;223;918657;-68
2021/01/07 02:59:09;;;;;;;27.27;14.97;;;;;;;;;;621632;225;918749;-68
2021/01/07 03:01:35;;;;;;;34.10;17.77;;;;;;;;;;616437;225;919858;-68
2021/01/07 03:04:01;;;;;;;32.00;18.93;;;;;;;;;;618577;225;917906;-68
2021/01/07 03:06:29;;;;;;;29.63;16.73;;;;;;;;;;625268;224;918838;-68
2021/01/07 03:08:55;;;;;;;33.30;19.00;;;;;;;;;;621860;224;916830;-68
2021/01/07 03:11:20;;;;;;;30.97;17.10;;;;;;;;;;620748;225;919725;-69
2021/01/07 03:13:46;;;;;;;27.90;15.70;;;;;;;;;;621304;224;918058;-69
2021/01/07 03:16:12;;;;;;;30.50;16.00;;;;;;;;;;616903;225;917837;-69
2021/01/07 03:18:38;;;;;;;27.55;17.02;;;;;;;;;;618283;224;917532;-68
2021/01/07 03:21:04;;;;;;;35.00;15.67;;;;;;;;;;618864;224;914458;-68
2021/01/07 03:23:30;;;;;;;30.50;17.20;;;;;;;;;;621754;225;915223;-68
2021/01/07 03:25:55;;;;;;;24.10;14.53;;;;;;;;;;619972;225;920042;-69
2021/01/07 03:28:21;;;;;;;24.03;13.90;;;;;;;;;;617220;225;920753;-68
2021/01/07 03:30:47;;;;;;;20.50;14.30;;;;;;;;;;623741;225;917830;-69
2021/01/07 03:33:13;;;;;;;18.00;11.60;;;;;;;;;;616866;225;918687;-69
2021/01/07 03:35:39;;;;;;;27.90;14.07;;;;;;;;;;617192;225;920027;-69
2021/01/07 03:38:05;;;;;;;21.23;12.27;;;;;;;;;;616775;225;918651;-69
2021/01/07 03:40:31;;;;;;;17.40;11.50;;;;;;;;;;617531;225;918885;-69
2021/01/07 03:42:56;;;;;;;23.07;12.47;;;;;;;;;;613953;224;917868;-71
2021/01/07 03:45:23;;;;;;;25.40;14.73;;;;;;;;;;618880;225;917953;-68
2021/01/07 03:47:48;;;;;;;22.50;12.80;;;;;;;;;;619535;225;918491;-69
2021/01/07 03:50:14;;;;;;;22.53;12.70;;;;;;;;;;616548;225;918300;-69
2021/01/07 03:52:40;;;;;;;19.97;12.50;;;;;;;;;;619041;225;919053;-68
2021/01/07 03:55:06;;;;;;;17.52;10.95;;;;;;;;;;620955;225;918977;-69
2021/01/07 03:57:32;;;;;;;21.42;11.23;;;;;;;;;;617995;225;918823;-68
2021/01/07 03:59:58;;;;;;;17.10;11.60;;;;;;;;;;615348;225;919286;-69
2021/01/07 04:02:24;;;;;;;20.73;11.53;;;;;;;;;;621686;225;918790;-69
2021/01/07 04:04:50;;;;;;;24.20;11.60;;;;;;;;;;616835;225;919519;-69
2021/01/07 04:07:16;;;;;;;20.60;12.83;;;;;;;;;;615823;225;918320;-68
2021/01/07 04:09:41;;;;;;;21.57;11.80;;;;;;;;;;617374;225;1019820;-69
2021/01/07 04:12:07;;;;;;;16.03;10.17;;;;;;;;;;616612;225;918910;-69
2021/01/07 04:14:33;;;;;;;19.77;10.77;;;;;;;;;;617435;225;919020;-69
2021/01/07 04:16:59;;;;;;;17.43;10.93;;;;;;;;;;619711;223;918916;-68
2021/01/07 04:19:25;;;;;;;22.37;12.27;;;;;;;;;;618148;225;916969;-68
2021/01/07 04:21:51;;;;;;;18.40;11.87;;;;;;;;;;618463;224;918990;-69
2021/01/07 04:24:17;;;;;;;19.80;11.80;;;;;;;;;;618769;224;918311;-69
2021/01/07 04:26:42;;;;;;;17.23;11.23;;;;;;;;;;622662;225;919092;-69
2021/01/07 04:29:08;;;;;;;24.90;13.17;;;;;;;;;;619687;225;918941;-69
2021/01/07 04:31:34;;;;;;;18.90;12.33;;;;;;;;;;616719;224;918539;-69
2021/01/07 04:34:00;;;;;;;19.77;11.37;;;;;;;;;;622847;224;917142;-70
2021/01/07 04:36:26;;;;;;;22.67;13.07;;;;;;;;;;617699;224;926621;-69
2021/01/07 04:38:52;;;;;;;19.60;11.50;;;;;;;;;;620250;225;919125;-68
2021/01/07 04:41:17;;;;;;;19.47;12.70;;;;;;;;;;620291;225;918152;-69
2021/01/07 04:43:43;;;;;;;19.83;12.30;;;;;;;;;;618320;225;918577;-68
2021/01/07 04:46:09;;;;;;;18.37;12.00;;;;;;;;;;614346;225;918697;-69
2021/01/07 04:48:36;;;;;;;22.20;12.20;;;;;;;;;;617346;225;925195;-68
2021/01/07 04:51:01;;;;;;;20.07;12.10;;;;;;;;;;622546;225;916732;-69
2021/01/07 04:53:27;;;;;;;18.77;11.10;;;;;;;;;;619296;225;919172;-69
2021/01/07 04:55:53;;;;;;;19.60;12.40;;;;;;;;;;616494;225;918354;-69
2021/01/07 04:58:18;;;;;;;20.03;10.77;;;;;;;;;;625868;225;918280;-69
2021/01/07 05:00:44;;;;;;;18.62;11.12;;;;;;;;;;620500;225;917794;-69
2021/01/07 05:03:10;;;;;;;13.07;9.30;;;;;;;;;;617422;225;919798;-68
2021/01/07 05:05:36;;;;;;;22.67;10.33;;;;;;;;;;623027;225;918125;-70
2021/01/07 05:08:02;;;;;;;19.67;12.00;;;;;;;;;;618177;225;919296;-68
2021/01/07 05:10:28;;;;;;;21.90;11.88;;;;;;;;;;624101;225;918789;-69
2021/01/07 05:12:54;;;;;;;16.67;10.80;;;;;;;;;;616345;225;1021557;-68
2021/01/07 05:15:19;;;;;;;20.50;10.63;;;;;;;;;;620666;225;906608;-69
2021/01/07 05:17:45;;;;;;;16.40;11.00;;;;;;;;;;616238;225;915492;-70
2021/01/07 05:20:12;;;;;;;18.27;9.80;;;;;;;;;;619092;225;919584;-69
2021/01/07 05:22:40;;;;;;;17.95;11.40;;;;;;;;;;619442;225;991617;-69
2021/01/07 05:25:10;;;;;;;16.90;10.23;;;;;;;;;;618376;225;917918;-69
2021/01/07 05:27:36;;;;;;;15.23;9.10;;;;;;;;;;618362;225;923054;-68
2021/01/07 05:30:02;;;;;;;15.33;9.17;;;;;;;;;;619812;224;1735921;-69
2021/01/07 05:32:34;;;;;;;14.57;9.67;;;;;;;;;;620014;222;914075;-68
2021/01/07 05:35:00;;;;;;;13.63;9.07;;;;;;;;;;618908;225;919232;-69
2021/01/07 05:37:25;;;;;;;13.90;8.73;;;;;;;;;;617150;225;919088;-68
2021/01/07 05:39:51;;;;;;;12.10;8.13;;;;;;;;;;623443;225;917382;-68
2021/01/07 05:42:17;;;;;;;14.23;8.90;;;;;;;;;;620839;225;1022594;-68
2021/01/07 05:44:44;;;;;;;13.10;9.07;;;;;;;;;;595742;230;919139;-69
2021/01/07 05:47:10;;;;;;;14.07;8.73;;;;;;;;;;611974;228;916242;-68
2021/01/07 05:49:36;;;;;;;12.57;8.37;;;;;;;;;;613511;226;916803;-68
2021/01/07 05:52:01;;;;;;;16.60;8.90;;;;;;;;;;612680;228;918893;-68
2021/01/07 05:54:27;;;;;;;14.00;8.73;;;;;;;;;;611438;228;924106;-69
2021/01/07 05:56:53;;;;;;;13.10;8.33;;;;;;;;;;613389;229;917885;-68
2021/01/07 05:59:19;;;;;;;16.33;10.50;;;;;;;;;;607722;225;918009;-68
2021/01/07 06:01:45;;;;;;;15.10;8.43;;;;;;;;;;611148;228;917775;-69
2021/01/07 06:04:11;;;;;;;13.73;8.77;;;;;;;;;;611159;228;1046809;-68
2021/01/07 06:06:36;;;;;;;16.20;9.60;;;;;;;;;;609066;228;914113;-69
2021/01/07 06:09:03;;;;;;;15.33;9.20;;;;;;;;;;605075;229;920069;-69
2021/01/07 06:11:28;;;;;;;11.73;8.37;;;;;;;;;;613253;226;921490;-70
2021/01/07 06:13:54;;;;;;;11.90;8.30;;;;;;;;;;605374;228;917758;-69
2021/01/07 06:16:20;;;;;;;12.17;7.93;;;;;;;;;;608929;228;914826;-69
2021/01/07 06:18:46;;;;;;;12.40;8.10;;;;;;;;;;606525;228;915139;-70
2021/01/07 06:21:12;;;;;;;13.67;8.40;;;;;;;;;;609647;229;915204;-70
2021/01/07 06:23:46;;;;;;;13.47;9.27;;;;;;;;;;608806;228;915869;-69
2021/01/07 06:26:25;;;;;;;16.12;9.75;;;;;;;;;;607864;228;914862;-70
2021/01/07 06:28:52;;;;;;;15.43;8.70;;;;;;;;;;606783;228;915379;-71
2021/01/07 06:31:18;;;;;;;14.80;9.47;;;;;;;;;;614340;228;915301;-70
2021/01/07 06:33:44;;;;;;;13.38;7.97;;;;;;;;;;612994;228;925096;-69
2021/01/07 06:36:10;;;;;;;20.00;9.33;;;;;;;;;;607811;228;1034541;-69
2021/01/07 06:38:36;;;;;;;15.27;9.43;;;;;;;;;;610102;228;1030260;-69
2021/01/07 06:41:02;;;;;;;15.57;10.47;;;;;;;;;;612987;228;918371;-69
2021/01/07 06:43:29;;;;;;;15.70;9.53;;;;;;;;;;611041;228;1125315;-69
2021/01/07 06:45:54;;;;;;;17.50;10.63;;;;;;;;;;607140;228;1224611;-68
2021/01/07 06:48:22;;;;;;;22.50;10.90;;;;;;;;;;614498;226;910412;-70
2021/01/07 06:50:48;;;;;;;17.57;10.87;;;;;;;;;;603597;228;2265601;-69
2021/01/07 06:53:14;;;;;;;19.40;11.60;;;;;;;;;;610970;229;912468;-69
2021/01/07 06:55:40;;;;;;;19.70;11.30;;;;;;;;;;613677;226;918999;-69
2021/01/07 06:58:06;;;;;;;17.27;10.10;;;;;;;;;;613884;228;918851;-69
2021/01/07 07:00:32;;;;;;;20.83;10.50;;;;;;;;;;613804;228;919003;-69
2021/01/07 07:02:58;;;;;;;17.13;9.87;;;;;;;;;;613154;228;918379;-68
2021/01/07 07:05:24;;;;;;;18.95;10.25;;;;;;;;;;616412;228;918966;-69
2021/01/07 07:08:05;;;;;;;17.70;10.00;;;;;;;;;;607293;228;919366;-69
2021/01/07 07:10:47;;;;;;;20.35;11.40;;;;;;;;;;610477;229;919192;-69
2021/01/07 07:13:14;;;;;;;23.87;12.97;;;;;;;;;;609526;228;1015356;-70
2021/01/07 07:15:40;;;;;;;24.30;13.00;;;;;;;;;;611065;228;918809;-69
2021/01/07 07:18:05;;;;;;;24.30;12.30;;;;;;;;;;610685;229;912616;-69
2021/01/07 07:20:31;;;;;;;22.93;12.67;;;;;;;;;;608484;228;921861;-69
2021/01/07 07:22:57;;;;;;;20.43;12.90;;;;;;;;;;609814;228;915829;-69
2021/01/07 07:25:23;;;;;;;25.77;10.93;;;;;;;;;;614769;229;913630;-69
2021/01/07 07:27:49;;;;;;;23.73;12.53;;;;;;;;;;610134;228;916458;-69
2021/01/07 07:30:16;;;;;;;23.60;13.87;;;;;;;;;;612509;228;910819;-70
2021/01/07 07:32:44;;;;;;;25.08;13.38;;;;;;;;;;611031;224;912658;-69
2021/01/07 07:35:21;;;;;;;27.77;15.13;;;;;;;;;;612467;229;918445;-70
2021/01/07 07:37:47;;;;;;;26.10;12.83;;;;;;;;;;603925;229;919238;-69
2021/01/07 07:40:13;;;;;;;25.97;15.60;;;;;;;;;;608063;229;918782;-69
2021/01/07 07:42:39;;;;;;;24.87;13.30;;;;;;;;;;607160;229;918560;-69
2021/01/07 07:45:06;;;;;;;21.73;13.10;;;;;;;;;;616168;228;918658;-69
2021/01/07 07:47:32;;;;;;;17.97;11.20;;;;;;;;;;609102;228;917441;-70
2021/01/07 07:49:58;;;;;;;20.50;13.23;;;;;;;;;;612234;229;948691;-70
2021/01/07 07:52:24;;;;;;;22.40;12.73;;;;;;;;;;617514;226;920265;-69
2021/01/07 07:54:55;;;;;;;23.67;13.37;;;;;;;;;;612985;228;920079;-70
2021/01/07 07:57:21;;;;;;;25.20;14.03;;;;;;;;;;611785;228;918193;-69
2021/01/07 07:59:47;;;;;;;23.80;13.50;;;;;;;;;;609900;228;919309;-69
2021/01/07 08:02:13;;;;;;;26.53;14.77;;;;;;;;;;615988;228;918388;-71
2021/01/07 08:04:39;;;;;;;25.57;13.07;;;;;;;;;;609751;228;919781;-70
2021/01/07 08:07:04;;;;;;;25.53;12.90;;;;;;;;;;607663;229;918575;-69
2021/01/07 08:09:30;;;;;;;24.53;12.87;;;;;;;;;;608968;228;919396;-69
2021/01/07 08:11:56;;;;;;;25.13;13.40;;;;;;;;;;608272;229;919506;-69
2021/01/07 08:14:23;;;;;;;20.37;11.00;;;;;;;;;;609903;228;919146;-69
2021/01/07 08:16:49;;;;;;;24.43;12.80;;;;;;;;;;613195;228;918577;-70
2021/01/07 08:19:16;;;;;;;20.13;11.77;;;;;;;;;;607658;228;918912;-70
2021/01/07 08:21:43;;;;;;;17.57;11.53;;;;;;;;;;611737;228;933255;-71
2021/01/07 08:24:09;;;;;;;22.50;13.60;;;;;;;;;;610898;228;918884;-69
2021/01/07 08:26:35;;;;;;;19.60;11.03;;;;;;;;;;614230;229;919148;-69
2021/01/07 08:29:02;;;;;;;23.47;14.00;;;;;;;;;;608845;228;1026290;-70
2021/01/07 08:31:27;;;;;;;19.57;12.07;;;;;;;;;;611120;228;919200;-70
2021/01/07 08:33:53;;;;;;;19.03;11.73;;;;;;;;;;615770;228;918580;-69
2021/01/07 08:36:19;;;;;;;22.80;11.83;;;;;;;;;;608815;228;920140;-69
2021/01/07 08:38:48;;;;;;;20.00;11.57;;;;;;;;;;611210;229;919727;-70
2021/01/07 08:41:14;;;;;;;25.13;12.93;;;;;;;;;;613905;228;918551;-70
2021/01/07 08:43:40;;;;;;;19.20;10.80;;;;;;;;;;614730;228;919272;-72
2021/01/07 08:46:10;;;;;;;21.87;11.47;;;;;;;;;;612380;228;917392;-68
2021/01/07 08:48:36;;;;;;;17.10;10.15;;;;;;;;;;609600;228;918894;-70
2021/01/07 08:51:02;;;;;;;16.27;8.93;;;;;;;;;;609770;228;921684;-70
2021/01/07 08:53:28;;;;;;;16.23;9.43;;;;;;;;;;612113;228;919025;-69
2021/01/07 08:55:54;;;;;;;14.90;8.93;;;;;;;;;;609010;228;919221;-69
2021/01/07 08:58:22;;;;;;;14.60;8.13;;;;;;;;;;610496;229;926134;-69
2021/01/07 09:00:48;;;;;;;14.73;8.23;;;;;;;;;;607928;228;916143;-69
2021/01/07 09:03:14;;;;;;;19.48;10.20;;;;;;;;;;611269;228;919807;-69
2021/01/07 09:05:40;;;;;;;16.40;8.53;;;;;;;;;;608782;228;1073910;-70
2021/01/07 09:08:07;;;;;;;17.87;7.80;;;;;;;;;;614759;228;915549;-69
2021/01/07 09:10:33;;;;;;;13.40;8.50;;;;;;;;;;610811;228;913563;-70
2021/01/07 09:12:58;;;;;;;13.87;8.47;;;;;;;;;;609190;228;945440;-69
2021/01/07 09:15:24;;;;;;;16.27;9.20;;;;;;;;;;613957;229;919698;-70
2021/01/07 09:17:55;;;;;;;16.37;10.27;;;;;;;;;;608066;229;919705;-70
2021/01/07 09:20:19;;;;;;;15.10;8.20;;;;;;;;;;609623;227;918796;-70
2021/01/07 09:22:45;;;;;;;16.23;9.20;;;;;;;;;;606896;228;935580;-69
2021/01/07 09:25:15;;;;;;;18.00;9.70;;;;;;;;;;616705;229;913929;-69
2021/01/07 09:27:36;;;;;;;15.60;7.90;;;;;;;;;;607532;229;918934;-69
2021/01/07 09:30:02;;;;;;;14.40;8.10;;;;;;;;;;606993;228;918061;-70
2021/01/07 09:32:28;;;;;;;14.10;7.93;;;;;;;;;;611721;228;920211;-70
2021/01/07 09:34:54;;;;;;;10.73;7.00;;;;;;;;;;610452;228;918570;-69
2021/01/07 09:37:20;;;;;;;14.10;8.10;;;;;;;;;;609478;228;921244;-69
2021/01/07 09:39:46;;;;;;;13.85;8.32;;;;;;;;;;614018;228;921681;-70
2021/01/07 09:42:12;;;;;;;13.27;8.80;;;;;;;;;;608189;228;918496;-69
2021/01/07 09:44:37;;;;;;;15.97;8.80;;;;;;;;;;610647;229;918276;-68
2021/01/07 09:47:03;;;;;;;13.53;8.40;;;;;;;;;;610123;229;919965;-73
2021/01/07 09:49:29;;;;;;;13.83;7.90;;;;;;;;;;606667;228;918313;-67
2021/01/07 09:51:55;;;;;;;16.50;10.20;;;;;;;;;;605070;229;918740;-68
2021/01/07 09:54:23;;;;;;;18.37;11.80;;;;;;;;;;608223;228;918771;-67
2021/01/07 09:56:47;;;;;;;19.10;11.00;;;;;;;;;;614789;229;919151;-68
2021/01/07 09:59:12;;;;;;;17.50;9.50;;;;;;;;;;610001;228;919139;-70
2021/01/07 10:01:38;;;;;;;12.60;9.18;;;;;;;;;;611729;228;919183;-68
2021/01/07 10:04:04;;;;;;;17.33;9.33;;;;;;;;;;610602;228;918732;-68
2021/01/07 10:06:30;;;;;;;14.50;9.07;;;;;;;;;;608972;229;919162;-69
2021/01/07 10:08:56;;;;;;;17.50;9.70;;;;;;;;;;604863;229;1153511;-69
2021/01/07 10:11:22;;;;;;;16.83;10.30;;;;;;;;;;614822;228;919324;-68
2021/01/07 10:13:48;;;;;;;18.47;9.20;;;;;;;;;;607635;228;919257;-68
2021/01/07 10:16:14;;;;;;;19.20;10.07;;;;;;;;;;611664;227;918361;-69
2021/01/07 10:18:41;;;;;;;18.45;10.30;;;;;;;;;;612665;227;1012681;-67
2021/01/07 10:21:07;;;;;;;18.80;9.17;;;;;;;;;;614217;228;920048;-68
2021/01/07 10:23:33;;;;;;;13.65;9.07;;;;;;;;;;610697;228;918384;-69
2021/01/07 10:25:58;;;;;;;14.97;9.80;;;;;;;;;;611712;228;918895;-68
2021/01/07 10:28:24;;;;;;;16.20;8.23;;;;;;;;;;615445;229;918917;-69
2021/01/07 10:30:51;;;;;;;18.20;9.90;;;;;;;;;;610147;228;923146;-69
2021/01/07 10:33:16;;;;;;;20.47;10.60;;;;;;;;;;612074;228;918655;-69
2021/01/07 10:35:42;;;;;;;11.20;7.23;;;;;;;;;;611929;226;918559;-68
2021/01/07 10:38:08;;;;;;;14.00;8.10;;;;;;;;;;610459;228;918102;-69
2021/01/07 10:40:34;;;;;;;12.00;6.47;;;;;;;;;;608340;229;918620;-69
2021/01/07 10:43:00;;;;;;;12.27;7.70;;;;;;;;;;613083;228;918941;-67
2021/01/07 10:45:25;;;;;;;18.80;9.20;;;;;;;;;;607096;228;967064;-69
2021/01/07 10:47:52;;;;;;;16.90;10.57;;;;;;;;;;609196;229;919341;-69
2021/01/07 10:50:18;;;;;;;19.43;10.30;;;;;;;;;;606410;227;1403861;-68
2021/01/07 10:52:49;;;;;;;13.97;9.27;;;;;;;;;;614227;228;1034773;-70
2021/01/07 10:55:17;;;;;;;13.13;9.20;;;;;;;;;;605592;228;1690562;-69
2021/01/07 10:57:49;;;;;;;14.03;8.97;;;;;;;;;;609894;228;1022384;-69
2021/01/07 11:00:32;;;;;;;16.73;9.67;;;;;;;;;;605529;228;918771;-69
2021/01/07 11:03:03;;;;;;;23.37;12.70;;;;;;;;;;606919;228;923803;-68
2021/01/07 11:05:31;;;;;;;18.67;10.70;;;;;;;;;;612096;228;882258;-70
2021/01/07 11:07:58;;;;;;;19.40;11.43;;;;;;;;;;609500;229;920698;-69
2021/01/07 11:10:23;;;;;;;20.10;11.47;;;;;;;;;;607984;228;922334;-70
2021/01/07 11:12:53;;;;;;;19.07;10.40;;;;;;;;;;607035;229;918081;-69
2021/01/07 11:15:19;;;;;;;22.57;12.30;;;;;;;;;;602865;229;916207;-69
2021/01/07 11:17:47;;;;;;;17.50;11.70;;;;;;;;;;607975;228;918822;-69
2021/01/07 11:20:13;;;;;;;22.87;11.77;;;;;;;;;;607683;228;919694;-69
2021/01/07 11:22:38;;;;;;;24.27;14.63;;;;;;;;;;610733;229;917957;-70
2021/01/07 11:25:06;;;;;;;20.87;11.37;;;;;;;;;;609722;229;918233;-69
2021/01/07 11:27:31;;;;;;;18.53;10.77;;;;;;;;;;611182;227;919911;-70
2021/01/07 11:29:57;;;;;;;19.02;11.63;;;;;;;;;;609691;228;918449;-69
2021/01/07 11:32:22;;;;;;;21.60;12.57;;;;;;;;;;604983;228;986609;-69
2021/01/07 11:34:48;;;;;;;17.93;10.63;;;;;;;;;;610192;228;918971;-70
2021/01/07 11:37:14;;;;;;;14.67;10.07;;;;;;;;;;610379;228;919614;-68
2021/01/07 11:39:41;;;;;;;20.27;11.30;;;;;;;;;;615477;228;922454;-69
2021/01/07 11:42:07;;;;;;;20.93;11.77;;;;;;;;;;610991;228;918725;-69
2021/01/07 11:44:34;;;;;;;22.30;12.60;;;;;;;;;;611497;228;919228;-68
2021/01/07 11:47:00;;;;;;;27.67;15.40;;;;;;;;;;612801;228;918341;-69
2021/01/07 11:49:26;;;;;;;24.00;14.27;;;;;;;;;;613889;227;918554;-69
2021/01/07 11:51:52;;;;;;;22.30;12.43;;;;;;;;;;609354;229;918538;-69
2021/01/07 11:54:18;;;;;;;19.27;11.50;;;;;;;;;;611120;227;918864;-69
2021/01/07 11:56:44;;;;;;;20.57;13.40;;;;;;;;;;611091;229;917353;-70
2021/01/07 11:59:09;;;;;;;19.27;11.50;;;;;;;;;;607345;228;919656;-69
2021/01/07 12:01:37;;;;;;;19.25;10.80;;;;;;;;;;608900;228;918693;-69
2021/01/07 12:04:10;;;;;;;23.87;12.47;;;;;;;;;;610885;229;918502;-70
2021/01/07 12:06:36;;;;;;;21.13;11.73;;;;;;;;;;604195;229;918961;-69
2021/01/07 12:09:19;;;;;;;21.87;12.20;;;;;;;;;;609262;229;916654;-69
2021/01/07 12:11:55;;;;;;;27.83;12.80;;;;;;;;;;608817;229;919274;-70
2021/01/07 12:14:21;;;;;;;23.80;14.33;;;;;;;;;;609916;228;918256;-69
2021/01/07 12:16:47;;;;;;;20.20;11.83;;;;;;;;;;614742;228;918376;-69
2021/01/07 12:19:12;;;;;;;23.38;11.95;;;;;;;;;;611139;228;913469;-69
2021/01/07 12:21:38;;;;;;;21.43;13.30;;;;;;;;;;610768;229;918074;-68
2021/01/07 12:24:05;;;;;;;20.90;12.20;;;;;;;;;;609658;228;915067;-68
2021/01/07 12:26:30;;;;;;;24.20;13.73;;;;;;;;;;613990;229;916291;-69
2021/01/07 12:28:56;;;;;;;25.27;14.07;;;;;;;;;;609290;228;913881;-69
2021/01/07 12:31:22;;;;;;;24.07;11.90;;;;;;;;;;609461;228;921786;-68
2021/01/07 12:33:53;;;;;;;20.77;11.57;;;;;;;;;;614298;228;918084;-69
2021/01/07 12:36:20;;;;;;;21.13;11.90;;;;;;;;;;611696;228;920093;-69
2021/01/07 12:39:03;;;;;;;20.90;12.37;;;;;;;;;;611161;226;919772;-69
2021/01/07 12:41:29;;;;;;;24.60;14.03;;;;;;;;;;614533;228;919106;-69
2021/01/07 12:43:55;;;;;;;23.13;12.10;;;;;;;;;;610305;228;916438;-69
2021/01/07 12:46:22;;;;;;;23.97;13.80;;;;;;;;;;608549;225;915714;-69
2021/01/07 12:48:47;;;;;;;21.13;12.73;;;;;;;;;;610468;228;920306;-69
2021/01/07 12:51:13;;;;;;;24.97;12.90;;;;;;;;;;607507;228;919133;-69
2021/01/07 12:53:40;;;;;;;24.57;12.63;;;;;;;;;;615157;227;919421;-69
2021/01/07 12:56:05;;;;;;;22.27;13.20;;;;;;;;;;606509;228;923744;-69
2021/01/07 12:58:31;;;;;;;26.90;13.53;;;;;;;;;;603804;229;921625;-68
2021/01/07 13:01:01;;;;;;;19.23;12.67;;;;;;;;;;613733;228;940626;-69
2021/01/07 13:03:27;;;;;;;20.33;13.30;;;;;;;;;;611414;229;918602;-69
2021/01/07 13:05:53;;;;;;;26.70;13.73;;;;;;;;;;611648;228;918719;-68
2021/01/07 13:08:18;;;;;;;20.73;11.73;;;;;;;;;;608310;229;920430;-69
2021/01/07 13:10:45;;;;;;;22.37;12.47;;;;;;;;;;612159;228;917879;-69
2021/01/07 13:13:10;;;;;;;29.40;14.37;;;;;;;;;;611868;228;926776;-69
2021/01/07 13:15:36;;;;;;;21.47;12.53;;;;;;;;;;609868;228;919481;-70
2021/01/07 13:18:02;;;;;;;22.25;11.95;;;;;;;;;;611662;229;918845;-68
2021/01/07 13:20:27;;;;;;;23.93;14.23;;;;;;;;;;608385;228;918803;-69
2021/01/07 13:22:53;;;;;;;23.67;14.90;;;;;;;;;;610837;229;924933;-69
2021/01/07 13:25:19;;;;;;;22.53;12.93;;;;;;;;;;614004;224;919137;-69
2021/01/07 13:27:45;;;;;;;19.53;12.10;;;;;;;;;;611901;228;919274;-70
2021/01/07 13:30:12;;;;;;;20.45;12.90;;;;;;;;;;611103;228;920237;-69
2021/01/07 13:32:38;;;;;;;22.03;13.10;;;;;;;;;;608250;228;932501;-67
2021/01/07 13:35:05;;;;;;;22.90;13.07;;;;;;;;;;615276;228;922359;-70
2021/01/07 13:37:30;;;;;;;18.33;11.97;;;;;;;;;;606856;229;919047;-69
2021/01/07 13:39:56;;;;;;;26.67;14.10;;;;;;;;;;612194;228;918750;-68
2021/01/07 13:42:22;;;;;;;20.37;12.83;;;;;;;;;;614760;229;626717;-69
2021/01/07 13:44:48;;;;;;;22.92;13.30;;;;;;;;;;610946;228;918275;-68
2021/01/07 13:47:14;;;;;;;24.00;14.10;;;;;;;;;;607295;227;919124;-69
2021/01/07 13:49:39;;;;;;;23.83;13.23;;;;;;;;;;616077;227;917906;-69
2021/01/07 13:52:05;;;;;;;21.67;12.20;;;;;;;;;;609750;228;1013099;-69
2021/01/07 13:54:31;;;;;;;19.67;12.77;;;;;;;;;;611230;228;919437;-70
2021/01/07 13:56:57;;;;;;;19.67;12.50;;;;;;;;;;612935;228;927835;-69
2021/01/07 13:59:23;;;;;;;19.03;12.73;;;;;;;;;;611690;228;918626;-69
2021/01/07 14:01:49;;;;;;;21.90;13.20;;;;;;;;;;610491;228;957530;-68